Time;durP1;ratioP1;P1;durP2;ratioP2;P2;SDS_P1;SDS_P2;PMS_P1;PMS_P2;Temp;Humidity;BMP_temperature;BMP_pressure;BME280_temperature;BME280_humidity;BME280_pressure;Samples;Min_cycle;Max_cycle;Signal;HPM_P1;HPM_P2
2022/06/28 00:02:25;;;;;;;5.00;1.02;;;20.70;62.70;;;;;;5024976;28;20068;-59
2022/06/28 00:04:51;;;;;;;5.68;1.15;;;20.70;62.60;;;;;;5025120;28;20068;-59
2022/06/28 00:07:17;;;;;;;3.55;1.45;;;20.70;62.60;;;;;;5008971;28;20426;-59
2022/06/28 00:09:44;;;;;;;3.88;1.17;;;20.70;62.60;;;;;;5026998;28;20103;-59
2022/06/28 00:17:41;;;;;;;4.45;0.95;;;20.70;62.60;;;;;;5005765;28;20548;-65
2022/06/28 00:20:11;;;;;;;3.90;1.30;;;20.70;62.50;;;;;;5006362;28;20489;-65
2022/06/28 00:22:37;;;;;;;4.10;1.27;;;20.70;62.50;;;;;;5007028;28;20527;-65
2022/06/28 00:25:04;;;;;;;3.38;1.05;;;20.70;62.60;;;;;;5013104;28;20034;-65
2022/06/28 00:27:31;;;;;;;3.50;1.02;;;20.70;62.60;;;;;;5007606;28;20030;-65
2022/06/28 00:29:57;;;;;;;3.92;1.30;;;20.60;62.40;;;;;;5007154;28;20643;-65
2022/06/28 00:32:23;;;;;;;4.70;1.40;;;20.60;62.50;;;;;;5009008;28;20025;-65
2022/06/28 00:34:48;;;;;;;2.50;0.93;;;20.70;62.50;;;;;;5013784;28;20477;-65
2022/06/28 00:37:14;;;;;;;3.88;1.10;;;20.60;62.40;;;;;;5008069;28;20026;-65
2022/06/28 00:39:40;;;;;;;3.67;0.90;;;20.60;62.40;;;;;;4999553;28;20414;-65
2022/06/28 00:42:08;;;;;;;4.82;1.20;;;20.60;63.50;;;;;;5014464;28;20038;-65
2022/06/28 00:44:34;;;;;;;3.97;1.00;;;20.60;62.40;;;;;;5022699;28;20810;-65
2022/06/28 00:47:03;;;;;;;3.70;1.15;;;20.60;62.40;;;;;;5002642;28;20046;-65
2022/06/28 00:49:29;;;;;;;3.25;1.00;;;20.60;62.50;;;;;;5005215;28;20049;-65
2022/06/28 00:51:58;;;;;;;4.15;0.93;;;20.60;62.40;;;;;;5002029;28;20030;-65
2022/06/28 00:54:24;;;;;;;3.33;1.00;;;20.50;62.40;;;;;;5006057;28;20113;-65
2022/06/28 00:56:50;;;;;;;4.75;0.90;;;20.50;62.40;;;;;;5014143;28;20030;-65
2022/06/28 00:59:16;;;;;;;3.55;1.02;;;20.50;62.30;;;;;;5006488;28;20041;-65
2022/06/28 01:01:43;;;;;;;3.83;1.10;;;20.50;62.30;;;;;;5013318;28;20026;-66
2022/06/28 01:04:09;;;;;;;4.07;0.98;;;20.50;62.30;;;;;;5004800;28;20037;-65
2022/06/28 01:06:38;;;;;;;4.28;0.88;;;20.50;62.30;;;;;;5000274;28;20462;-65
2022/06/28 01:09:04;;;;;;;3.75;1.23;;;20.50;62.30;;;;;;5004651;28;20044;-65
2022/06/28 01:11:31;;;;;;;4.07;1.00;;;20.50;62.30;;;;;;5006284;28;20120;-65
2022/06/28 01:14:03;;;;;;;4.78;1.17;;;20.50;62.40;;;;;;5005340;28;20117;-65
2022/06/28 01:16:29;;;;;;;1.17;0.70;;;20.50;62.30;;;;;;5003909;28;20041;-65
2022/06/28 01:18:56;;;;;;;2.95;0.70;;;20.50;62.30;;;;;;5006216;28;20034;-65
2022/06/28 01:21:29;;;;;;;3.53;0.93;;;20.40;62.30;;;;;;5008528;28;20029;-65
2022/06/28 01:23:56;;;;;;;2.63;1.08;;;20.40;62.30;;;;;;4985773;28;20035;-65
2022/06/28 01:26:23;;;;;;;2.25;0.85;;;20.40;62.30;;;;;;5003830;28;20447;-65
2022/06/28 01:28:49;;;;;;;2.28;0.85;;;20.40;62.30;;;;;;5007624;28;20089;-65
2022/06/28 01:31:18;;;;;;;4.90;1.05;;;20.40;62.30;;;;;;5000851;28;20116;-65
2022/06/28 01:33:43;;;;;;;3.05;0.98;;;20.40;62.30;;;;;;5016064;28;20084;-65
2022/06/28 01:36:09;;;;;;;5.20;1.00;;;20.40;62.20;;;;;;5004571;28;20485;-65
2022/06/28 01:38:35;;;;;;;3.67;1.00;;;20.40;62.30;;;;;;5003726;28;20029;-67
2022/06/28 01:41:01;;;;;;;2.95;0.70;;;20.40;62.20;;;;;;5017215;28;20414;-65
2022/06/28 01:43:27;;;;;;;2.92;0.80;;;20.30;62.20;;;;;;5004690;28;20030;-66
2022/06/28 01:45:53;;;;;;;3.03;0.80;;;20.40;62.30;;;;;;5007653;28;20022;-66
2022/06/28 01:48:19;;;;;;;2.80;0.80;;;20.40;62.20;;;;;;5007040;28;20022;-66
2022/06/28 01:50:46;;;;;;;3.25;1.05;;;20.30;62.20;;;;;;5006354;28;20079;-66
2022/06/28 01:53:11;;;;;;;3.15;0.80;;;20.30;62.10;;;;;;5006761;28;20091;-66
2022/06/28 01:55:39;;;;;;;2.47;0.77;;;20.30;62.20;;;;;;5004801;28;20608;-66
2022/06/28 01:58:11;;;;;;;3.70;1.00;;;20.30;62.20;;;;;;4999490;28;20065;-66
2022/06/28 02:00:37;;;;;;;3.33;1.05;;;20.30;62.20;;;;;;5003555;28;20044;-66
2022/06/28 02:03:03;;;;;;;2.67;1.00;;;20.30;62.10;;;;;;5006168;28;20029;-66
2022/06/28 02:05:29;;;;;;;3.95;1.00;;;20.30;62.20;;;;;;5030053;28;20486;-66
2022/06/28 02:07:55;;;;;;;3.38;0.90;;;20.30;62.20;;;;;;5005209;28;20045;-66
2022/06/28 02:10:21;;;;;;;3.05;0.80;;;20.30;62.20;;;;;;5006006;28;20067;-66
2022/06/28 02:12:46;;;;;;;1.92;0.80;;;20.20;62.20;;;;;;5003035;28;20023;-66
2022/06/28 02:15:12;;;;;;;2.15;0.60;;;20.20;62.20;;;;;;5004498;28;20042;-66
2022/06/28 02:17:38;;;;;;;4.43;0.98;;;20.20;62.20;;;;;;5005477;28;20029;-66
2022/06/28 02:20:04;;;;;;;3.50;1.00;;;20.20;62.20;;;;;;5007727;28;20029;-66
2022/06/28 02:22:30;;;;;;;1.85;0.90;;;20.20;62.20;;;;;;5010625;28;20485;-66
2022/06/28 02:24:55;;;;;;;3.17;1.00;;;20.20;62.20;;;;;;4994501;28;20040;-66
2022/06/28 02:27:21;;;;;;;3.35;1.10;;;20.20;62.20;;;;;;5011082;28;20033;-66
2022/06/28 02:29:47;;;;;;;3.58;0.90;;;20.20;62.20;;;;;;5010117;28;20125;-66
2022/06/28 02:32:12;;;;;;;3.85;0.70;;;20.20;62.20;;;;;;5009813;28;20524;-66
2022/06/28 02:40:23;;;;;;;2.22;1.13;;;20.20;62.20;;;;;;5011006;28;20091;-66
2022/06/28 02:42:52;;;;;;;2.53;0.75;;;20.10;62.10;;;;;;5009281;28;20104;-66
2022/06/28 02:45:18;;;;;;;4.55;1.38;;;20.10;62.10;;;;;;5010303;28;20065;-66
2022/06/28 02:47:44;;;;;;;4.15;0.98;;;20.10;62.10;;;;;;5009154;28;20025;-66
2022/06/28 02:50:10;;;;;;;2.55;0.80;;;20.10;62.10;;;;;;5008473;28;20046;-66
2022/06/28 02:52:36;;;;;;;3.55;1.00;;;20.10;62.10;;;;;;5010727;28;20029;-66
2022/06/28 02:55:01;;;;;;;2.53;0.80;;;20.10;62.10;;;;;;5010016;28;20406;-66
2022/06/28 02:57:27;;;;;;;2.88;1.00;;;20.10;62.10;;;;;;5007970;28;20413;-66
2022/06/28 02:59:53;;;;;;;2.45;0.75;;;20.10;62.10;;;;;;5010112;28;20053;-66
2022/06/28 03:02:18;;;;;;;3.58;0.88;;;20.10;62.10;;;;;;5007946;28;20026;-66
2022/06/28 03:04:44;;;;;;;1.42;0.80;;;20.00;62.00;;;;;;5006079;28;20030;-66
2022/06/28 03:07:09;;;;;;;3.55;1.05;;;20.00;62.10;;;;;;5008332;28;20025;-66
2022/06/28 03:09:35;;;;;;;3.70;1.17;;;20.00;62.10;;;;;;5007891;28;20038;-66
2022/06/28 03:12:01;;;;;;;2.70;0.85;;;20.00;62.00;;;;;;5009260;28;20030;-66
2022/06/28 03:14:27;;;;;;;1.98;0.95;;;20.00;62.00;;;;;;5007828;28;20041;-65
2022/06/28 03:16:52;;;;;;;4.18;1.20;;;20.00;62.00;;;;;;5008966;28;20018;-66
2022/06/28 03:19:18;;;;;;;1.90;0.80;;;20.00;62.00;;;;;;5008277;28;20444;-66
2022/06/28 03:21:43;;;;;;;2.85;0.90;;;20.00;62.00;;;;;;5008077;28;20048;-66
2022/06/28 03:24:09;;;;;;;4.82;0.95;;;20.00;62.00;;;;;;5006811;28;20101;-66
2022/06/28 03:26:35;;;;;;;3.47;0.88;;;20.00;62.00;;;;;;5008596;28;20148;-66
2022/06/28 03:29:00;;;;;;;2.67;0.75;;;20.00;62.00;;;;;;5008227;28;20113;-66
2022/06/28 03:31:26;;;;;;;2.58;0.90;;;20.00;62.10;;;;;;5007455;28;20105;-66
2022/06/28 03:33:51;;;;;;;3.22;1.00;;;20.00;62.10;;;;;;5008666;28;20084;-66
2022/06/28 03:36:17;;;;;;;2.95;0.88;;;20.00;62.10;;;;;;5009102;28;20038;-66
2022/06/28 03:38:43;;;;;;;2.60;0.90;;;20.00;62.10;;;;;;5008588;28;20022;-66
2022/06/28 03:41:08;;;;;;;2.63;0.90;;;19.90;62.00;;;;;;5007097;28;20034;-66
2022/06/28 03:43:34;;;;;;;3.08;0.73;;;19.90;62.00;;;;;;5010322;28;20500;-66
2022/06/28 03:46:00;;;;;;;2.88;0.90;;;19.90;62.10;;;;;;5007586;28;20419;-66
2022/06/28 03:48:25;;;;;;;3.47;0.80;;;19.90;62.00;;;;;;5008547;28;20029;-66
2022/06/28 03:50:52;;;;;;;3.05;0.90;;;19.90;62.10;;;;;;5009406;28;20034;-66
2022/06/28 03:53:17;;;;;;;4.25;1.23;;;19.90;62.10;;;;;;5007080;28;20022;-66
2022/06/28 03:55:43;;;;;;;3.22;1.00;;;19.90;62.10;;;;;;5007689;28;20036;-66
2022/06/28 03:58:08;;;;;;;1.33;0.80;;;19.90;62.10;;;;;;5009357;28;20505;-66
2022/06/28 04:00:34;;;;;;;2.10;0.82;;;19.90;62.10;;;;;;5006740;28;20042;-66
2022/06/28 04:03:00;;;;;;;3.42;1.00;;;19.90;62.10;;;;;;5008173;28;20409;-66
2022/06/28 04:05:26;;;;;;;2.55;0.90;;;19.90;62.10;;;;;;5007814;28;20030;-66
2022/06/28 04:07:52;;;;;;;3.63;0.95;;;19.90;62.10;;;;;;5007917;28;20022;-66
2022/06/28 04:10:17;;;;;;;2.88;0.82;;;19.90;62.10;;;;;;5007721;28;20040;-66
2022/06/28 04:12:43;;;;;;;2.88;1.10;;;19.90;62.10;;;;;;5007676;28;20060;-66
2022/06/28 04:15:09;;;;;;;2.63;0.80;;;19.80;62.10;;;;;;5009121;28;20520;-66
2022/06/28 04:17:35;;;;;;;3.40;1.00;;;19.80;62.00;;;;;;5007282;28;20061;-66
2022/06/28 04:20:00;;;;;;;2.50;0.80;;;19.80;62.10;;;;;;5007244;28;20521;-65
2022/06/28 04:22:26;;;;;;;2.28;0.80;;;19.80;62.10;;;;;;5006379;28;20533;-66
2022/06/28 04:24:52;;;;;;;3.05;0.85;;;19.80;62.10;;;;;;5008154;28;20026;-65
2022/06/28 04:27:17;;;;;;;4.22;1.02;;;19.80;62.10;;;;;;5008469;28;20117;-66
2022/06/28 04:29:43;;;;;;;2.88;0.90;;;19.80;62.10;;;;;;5008024;28;20073;-66
2022/06/28 04:32:09;;;;;;;1.60;0.80;;;19.80;62.10;;;;;;5006415;28;20030;-65
2022/06/28 04:34:34;;;;;;;1.88;0.68;;;19.80;62.00;;;;;;5006439;28;20038;-65
2022/06/28 04:37:00;;;;;;;2.72;1.10;;;19.80;62.00;;;;;;5006078;28;20030;-66
2022/06/28 04:39:25;;;;;;;2.83;0.85;;;19.80;62.10;;;;;;5006551;28;20117;-66
2022/06/28 04:41:51;;;;;;;2.42;0.80;;;19.70;62.00;;;;;;5006826;28;20041;-66
2022/06/28 04:44:17;;;;;;;2.60;0.80;;;19.80;62.20;;;;;;5006735;28;20022;-66
2022/06/28 04:46:42;;;;;;;3.30;0.90;;;19.70;62.10;;;;;;5004900;28;20029;-66
2022/06/28 04:49:08;;;;;;;3.70;1.10;;;19.70;62.00;;;;;;5006586;28;20049;-66
2022/06/28 04:51:34;;;;;;;3.03;0.85;;;19.70;62.00;;;;;;5003864;28;20034;-66
2022/06/28 04:54:00;;;;;;;2.30;0.85;;;19.70;62.10;;;;;;5019409;28;20026;-66
2022/06/28 04:56:25;;;;;;;2.90;0.90;;;19.70;62.10;;;;;;5005880;28;20022;-66
2022/06/28 04:58:51;;;;;;;2.08;0.80;;;19.70;62.10;;;;;;5006524;28;20099;-66
2022/06/28 05:01:17;;;;;;;3.47;1.00;;;19.70;62.10;;;;;;5005128;28;20648;-66
2022/06/28 05:03:43;;;;;;;3.88;1.20;;;19.70;62.00;;;;;;5004159;28;20040;-66
2022/06/28 05:06:08;;;;;;;2.10;0.77;;;19.70;62.10;;;;;;5002766;28;20083;-66
2022/06/28 05:08:34;;;;;;;2.72;0.80;;;19.70;62.10;;;;;;5006812;28;20026;-66
2022/06/28 05:11:01;;;;;;;2.47;0.80;;;19.70;61.80;;;;;;5006107;28;20041;-67
2022/06/28 05:13:27;;;;;;;1.80;0.70;;;19.70;61.70;;;;;;5004688;28;20030;-66
2022/06/28 05:15:52;;;;;;;5.03;0.80;;;19.70;61.80;;;;;;5007876;28;20091;-67
2022/06/28 05:18:18;;;;;;;4.10;0.93;;;19.70;62.00;;;;;;5004884;28;20486;-66
2022/06/28 05:20:44;;;;;;;2.83;0.90;;;19.70;62.10;;;;;;5007244;28;20030;-66
2022/06/28 05:23:09;;;;;;;3.10;0.95;;;19.70;62.10;;;;;;5000063;28;20034;-67
2022/06/28 05:25:36;;;;;;;3.08;0.90;;;19.80;62.30;;;;;;5004869;28;20034;-66
2022/06/28 05:28:04;;;;;;;4.32;0.93;;;19.80;62.30;;;;;;5004412;28;22253;-67
2022/06/28 05:30:30;;;;;;;3.45;1.15;;;19.80;62.30;;;;;;5004342;28;20042;-66
2022/06/28 05:32:56;;;;;;;4.70;0.98;;;19.80;62.40;;;;;;5005996;28;20057;-66
2022/06/28 05:35:22;;;;;;;4.47;0.73;;;19.80;62.40;;;;;;5001484;28;20056;-67
2022/06/28 05:37:47;;;;;;;2.15;0.85;;;19.80;62.40;;;;;;5005481;28;20505;-67
2022/06/28 05:40:13;;;;;;;3.20;1.02;;;19.80;62.50;;;;;;5005694;28;20445;-67
2022/06/28 05:42:39;;;;;;;4.78;1.10;;;19.80;62.40;;;;;;5007157;28;20068;-66
2022/06/28 05:45:05;;;;;;;1.95;0.63;;;19.70;62.40;;;;;;5006486;28;20030;-66
2022/06/28 05:47:31;;;;;;;4.28;0.85;;;19.80;62.40;;;;;;5006335;28;20065;-66
2022/06/28 05:49:57;;;;;;;3.88;1.10;;;19.80;62.50;;;;;;5006421;28;20048;-67
2022/06/28 05:52:22;;;;;;;3.53;0.93;;;19.80;62.50;;;;;;5006981;28;20026;-66
2022/06/28 05:54:48;;;;;;;5.13;1.05;;;19.80;62.40;;;;;;5005499;28;20041;-67
2022/06/28 05:57:14;;;;;;;4.13;0.95;;;19.80;62.40;;;;;;5005839;28;20040;-66
2022/06/28 05:59:39;;;;;;;3.53;1.25;;;19.80;62.40;;;;;;5006722;28;20065;-66
2022/06/28 06:02:05;;;;;;;4.00;0.90;;;19.80;62.30;;;;;;5007281;28;20025;-67
2022/06/28 06:04:31;;;;;;;2.45;1.00;;;19.80;62.30;;;;;;5005103;28;20029;-66
2022/06/28 06:06:56;;;;;;;4.10;0.90;;;19.80;62.30;;;;;;5007261;28;20035;-67
2022/06/28 06:09:22;;;;;;;3.30;0.90;;;19.80;62.40;;;;;;5005533;28;20490;-66
2022/06/28 06:11:48;;;;;;;5.97;1.00;;;19.80;62.30;;;;;;5006777;28;20041;-64
2022/06/28 06:14:16;;;;;;;3.58;1.02;;;19.80;62.30;;;;;;5006227;28;20387;-64
2022/06/28 06:16:43;;;;;;;3.88;0.80;;;19.80;62.30;;;;;;5002668;28;20112;-64
2022/06/28 06:19:09;;;;;;;3.50;0.80;;;19.80;62.30;;;;;;5005472;28;20034;-64
2022/06/28 06:21:34;;;;;;;3.60;0.88;;;19.80;62.30;;;;;;5005405;28;20034;-64
2022/06/28 06:24:00;;;;;;;3.00;1.10;;;19.80;62.20;;;;;;5005167;28;20037;-66
2022/06/28 06:26:26;;;;;;;2.08;0.80;;;19.80;62.20;;;;;;5007259;28;20071;-66
2022/06/28 06:28:51;;;;;;;2.88;0.82;;;19.80;62.20;;;;;;5005861;28;20456;-66
2022/06/28 06:31:17;;;;;;;4.35;0.90;;;19.80;62.20;;;;;;5003980;28;20027;-66
2022/06/28 06:33:43;;;;;;;5.13;0.98;;;19.80;62.20;;;;;;5001194;28;20145;-66
2022/06/28 06:36:08;;;;;;;2.55;0.70;;;19.80;62.20;;;;;;5005247;28;20497;-66
2022/06/28 06:38:34;;;;;;;4.40;1.08;;;19.80;62.20;;;;;;5006470;28;20034;-66
2022/06/28 06:41:00;;;;;;;2.78;1.00;;;19.80;62.20;;;;;;5006635;28;20038;-66
2022/06/28 06:43:28;;;;;;;4.90;1.30;;;19.80;62.20;;;;;;5006074;28;20483;-66
2022/06/28 06:45:54;;;;;;;2.22;0.80;;;19.80;62.10;;;;;;5017631;28;20120;-66
2022/06/28 06:48:21;;;;;;;5.28;0.90;;;19.80;62.20;;;;;;5005943;28;20173;-66
2022/06/28 06:50:47;;;;;;;2.67;0.90;;;19.80;62.10;;;;;;5007002;28;20033;-66
2022/06/28 06:53:12;;;;;;;2.85;0.82;;;19.80;62.10;;;;;;5012320;28;20049;-66
2022/06/28 06:55:38;;;;;;;4.68;0.90;;;19.80;62.10;;;;;;5005483;28;20036;-66
2022/06/28 06:58:03;;;;;;;2.00;0.60;;;19.90;62.10;;;;;;5006373;28;20101;-66
2022/06/28 07:00:29;;;;;;;2.38;0.80;;;19.90;62.10;;;;;;5006258;28;20033;-66
2022/06/28 07:02:55;;;;;;;3.45;1.00;;;19.90;62.10;;;;;;5005113;28;20034;-66
2022/06/28 07:05:20;;;;;;;3.45;0.90;;;19.80;62.00;;;;;;5005888;28;20030;-66
2022/06/28 07:07:46;;;;;;;2.08;0.90;;;19.80;62.00;;;;;;5005269;28;20030;-66
2022/06/28 07:10:12;;;;;;;1.65;0.80;;;19.90;62.00;;;;;;5010087;28;20041;-66
2022/06/28 07:12:37;;;;;;;1.98;0.80;;;19.90;62.00;;;;;;5007415;28;20058;-66
2022/06/28 07:15:03;;;;;;;3.30;0.93;;;19.90;62.00;;;;;;5008981;28;20037;-66
2022/06/28 07:17:29;;;;;;;4.18;0.90;;;19.90;62.00;;;;;;5008903;28;20021;-66
2022/06/28 07:19:55;;;;;;;3.33;0.93;;;19.90;61.90;;;;;;5010623;28;20034;-66
2022/06/28 07:22:21;;;;;;;1.85;0.90;;;19.90;61.90;;;;;;5008560;28;20026;-66
2022/06/28 07:24:49;;;;;;;3.83;1.00;;;19.90;61.90;;;;;;5009271;28;20044;-66
2022/06/28 07:27:15;;;;;;;3.15;0.90;;;19.90;61.90;;;;;;5009408;28;20723;-66
2022/06/28 07:29:40;;;;;;;3.28;1.10;;;19.90;61.90;;;;;;5009204;28;20185;-65
2022/06/28 07:32:06;;;;;;;4.47;1.10;;;19.90;61.80;;;;;;5007688;28;20041;-66
2022/06/28 07:34:32;;;;;;;3.05;0.77;;;19.90;61.80;;;;;;5007604;28;20109;-66
2022/06/28 07:36:58;;;;;;;2.72;1.00;;;20.00;61.90;;;;;;5010244;28;20173;-66
2022/06/28 07:39:23;;;;;;;2.05;0.80;;;19.90;61.80;;;;;;5004923;28;20034;-65
2022/06/28 07:41:49;;;;;;;3.42;0.98;;;20.00;61.80;;;;;;5008361;28;20029;-66
2022/06/28 07:44:14;;;;;;;3.20;0.73;;;20.00;61.80;;;;;;5007518;28;20041;-65
2022/06/28 07:46:40;;;;;;;4.30;1.10;;;20.00;61.80;;;;;;5006396;28;20046;-66
2022/06/28 07:49:06;;;;;;;3.97;1.00;;;20.00;61.70;;;;;;5007429;28;20037;-65
2022/06/28 07:54:16;;;;;;;3.30;1.00;;;20.00;61.70;;;;;;5007737;28;20456;-65
2022/06/28 07:56:42;;;;;;;2.38;0.90;;;20.00;61.80;;;;;;5008274;28;20097;-66
2022/06/28 07:59:07;;;;;;;4.78;0.93;;;20.00;61.80;;;;;;5008312;28;20469;-66
2022/06/28 08:01:33;;;;;;;2.72;0.88;;;20.00;61.70;;;;;;5008150;28;20490;-66
2022/06/28 08:03:59;;;;;;;2.13;0.82;;;20.00;62.70;;;;;;5010469;28;20398;-65
2022/06/28 08:06:24;;;;;;;1.70;0.80;;;20.10;61.70;;;;;;5007807;28;20057;-65
2022/06/28 08:08:50;;;;;;;2.95;0.85;;;20.10;61.70;;;;;;5005892;28;20105;-65
2022/06/28 08:11:15;;;;;;;2.22;0.75;;;20.10;61.70;;;;;;5008192;28;20022;-66
2022/06/28 08:13:41;;;;;;;3.47;0.88;;;20.10;61.70;;;;;;5008258;28;20365;-66
2022/06/28 08:16:07;;;;;;;2.55;0.90;;;20.10;61.60;;;;;;5008364;28;20415;-65
2022/06/28 08:18:33;;;;;;;2.65;0.80;;;20.10;61.70;;;;;;5008172;28;20402;-66
2022/06/28 08:20:58;;;;;;;2.05;0.80;;;20.10;61.70;;;;;;5020275;28;20048;-65
2022/06/28 08:23:24;;;;;;;2.42;0.85;;;20.10;61.80;;;;;;5008010;28;20022;-65
2022/06/28 08:25:49;;;;;;;2.47;0.85;;;20.10;61.90;;;;;;5006797;28;20041;-65
2022/06/28 08:28:15;;;;;;;2.65;0.80;;;20.10;61.90;;;;;;5007056;28;20037;-65
2022/06/28 08:30:41;;;;;;;2.75;0.93;;;20.10;62.00;;;;;;5009072;28;20320;-65
2022/06/28 08:33:07;;;;;;;1.40;0.80;;;20.10;62.00;;;;;;5006562;28;20087;-65
2022/06/28 08:35:34;;;;;;;1.65;0.75;;;20.00;62.00;;;;;;5006835;28;20026;-66
2022/06/28 08:38:06;;;;;;;2.72;0.85;;;20.10;62.00;;;;;;5005382;28;20026;-66
2022/06/28 08:40:35;;;;;;;4.32;0.90;;;20.10;62.00;;;;;;5007964;28;20413;-66
2022/06/28 08:43:00;;;;;;;4.07;0.90;;;20.10;62.00;;;;;;5007022;28;23029;-66
2022/06/28 08:45:27;;;;;;;4.03;1.00;;;20.00;62.00;;;;;;5006748;28;20040;-66
2022/06/28 08:47:54;;;;;;;3.13;0.80;;;20.10;62.10;;;;;;5008328;28;20137;-66
2022/06/28 08:50:38;;;;;;;3.53;1.00;;;20.10;62.10;;;;;;5005966;28;20113;-65
2022/06/28 08:53:05;;;;;;;1.75;0.77;;;20.00;62.10;;;;;;5003439;28;20092;-66
2022/06/28 08:55:31;;;;;;;3.58;0.90;;;20.10;62.10;;;;;;5006936;28;20054;-65
2022/06/28 08:57:58;;;;;;;2.75;0.82;;;20.10;62.00;;;;;;5007703;28;20482;-65
2022/06/28 09:00:23;;;;;;;2.03;0.85;;;20.10;62.10;;;;;;5007146;28;20030;-65
2022/06/28 09:02:49;;;;;;;3.00;0.80;;;20.10;61.90;;;;;;5005376;28;20032;-66
2022/06/28 09:05:15;;;;;;;2.00;0.80;;;20.20;61.90;;;;;;5006859;28;20034;-66
2022/06/28 09:07:40;;;;;;;2.92;0.90;;;20.20;61.80;;;;;;5005009;28;20040;-65
2022/06/28 09:10:06;;;;;;;1.60;0.90;;;20.20;61.70;;;;;;5006582;28;20095;-66
2022/06/28 09:12:35;;;;;;;2.28;0.70;;;20.20;61.80;;;;;;5005922;28;20025;-66
2022/06/28 09:15:04;;;;;;;2.70;0.80;;;20.20;61.50;;;;;;5005352;28;20476;-65
2022/06/28 09:17:31;;;;;;;2.85;0.90;;;20.20;61.50;;;;;;5006034;28;20034;-65
2022/06/28 09:20:08;;;;;;;1.85;0.80;;;20.30;61.50;;;;;;5004161;28;20018;-65
2022/06/28 09:22:37;;;;;;;1.88;0.80;;;20.30;61.60;;;;;;5003585;28;20029;-66
2022/06/28 09:25:12;;;;;;;2.75;0.73;;;20.30;61.60;;;;;;5002249;28;20591;-65
2022/06/28 09:27:39;;;;;;;1.80;0.70;;;20.20;61.50;;;;;;5004485;28;20497;-66
2022/06/28 09:30:07;;;;;;;1.33;0.70;;;20.20;61.50;;;;;;5007296;28;20038;-65
2022/06/28 09:32:34;;;;;;;3.72;0.95;;;20.20;61.60;;;;;;5006907;28;20482;-65
2022/06/28 09:35:03;;;;;;;1.90;0.68;;;20.20;61.80;;;;;;5007220;28;20037;-66
2022/06/28 09:37:48;;;;;;;2.40;0.70;;;20.20;61.50;;;;;;5007032;28;20018;-65
2022/06/28 09:40:15;;;;;;;;;;;20.20;61.80;;;;;;5004717;28;20493;-65
2022/06/28 09:42:41;;;;;;;3.65;0.90;;;20.20;61.70;;;;;;5017647;28;20297;-65
2022/06/28 09:45:07;;;;;;;1.65;0.70;;;20.20;62.00;;;;;;5005717;28;20026;-66
2022/06/28 09:47:33;;;;;;;2.42;0.80;;;20.20;62.30;;;;;;5004476;28;20414;-65
2022/06/28 09:50:02;;;;;;;3.67;0.98;;;20.20;61.90;;;;;;5006265;28;20077;-66
2022/06/28 09:52:28;;;;;;;2.15;0.75;;;20.20;61.90;;;;;;5016265;28;20030;-66
2022/06/28 09:54:55;;;;;;;2.90;0.90;;;20.20;61.50;;;;;;5005060;28;20033;-66
2022/06/28 09:57:21;;;;;;;3.05;0.70;;;20.30;61.70;;;;;;5006100;28;20033;-65
2022/06/28 09:59:47;;;;;;;3.13;0.90;;;20.30;61.60;;;;;;5013067;28;20240;-66
2022/06/28 10:02:15;;;;;;;1.77;0.75;;;20.30;61.60;;;;;;4996742;28;20030;-66
2022/06/28 10:04:40;;;;;;;3.90;1.15;;;20.30;61.70;;;;;;4998395;28;20027;-66
2022/06/28 10:07:09;;;;;;;3.90;0.90;;;20.30;61.60;;;;;;5004288;28;20025;-66
2022/06/28 10:09:35;;;;;;;3.08;0.77;;;20.30;61.90;;;;;;4996788;28;20050;-66
2022/06/28 10:15:04;;;;;;;1.95;0.85;;;20.30;62.00;;;;;;5004250;28;22048;-65
2022/06/28 10:17:54;;;;;;;2.80;1.00;;;20.30;61.90;;;;;;5006310;28;20030;-66
2022/06/28 10:20:28;;;;;;;5.88;1.02;;;20.30;62.20;;;;;;5001922;28;20038;-65
2022/06/28 10:23:33;;;;;;;3.88;0.73;;;20.30;62.20;;;;;;5006161;28;21983;-65
2022/06/28 10:26:01;;;;;;;4.40;0.90;;;20.40;62.80;;;;;;5001039;28;20038;-66
2022/06/28 10:28:28;;;;;;;2.72;0.93;;;20.40;62.80;;;;;;5002112;28;20038;-66
2022/06/28 10:31:32;;;;;;;4.93;0.93;;;20.40;62.70;;;;;;5004122;28;20041;-66
2022/06/28 10:34:07;;;;;;;3.60;0.90;;;20.40;62.60;;;;;;4907348;29;20036;-66
2022/06/28 10:36:45;;;;;;;4.40;1.02;;;20.40;62.60;;;;;;4906363;29;20043;-66
2022/06/28 10:39:13;;;;;;;4.15;0.90;;;20.40;62.60;;;;;;4906342;29;20040;-67
2022/06/28 10:41:42;;;;;;;3.33;0.93;;;20.40;62.60;;;;;;4907329;29;20142;-66
2022/06/28 10:44:12;;;;;;;4.90;1.10;;;20.50;62.60;;;;;;4911705;29;20194;-66
2022/06/28 10:46:41;;;;;;;4.40;1.20;;;20.60;62.40;;;;;;4896275;29;20039;-65
2022/06/28 10:49:08;;;;;;;4.35;1.17;;;20.70;62.60;;;;;;4911122;29;20071;-65
2022/06/28 10:51:34;;;;;;;7.88;1.70;;;20.70;62.70;;;;;;4909593;29;20925;-65
2022/06/28 10:54:04;;;;;;;6.93;1.40;;;20.90;63.60;;;;;;4896386;29;20039;-65
2022/06/28 10:56:41;;;;;;;6.45;1.70;;;20.80;64.60;;;;;;4911813;29;20563;-65
2022/06/28 10:59:14;;;;;;;6.20;1.70;;;20.90;63.50;;;;;;4911102;29;20110;-65
2022/06/28 11:01:40;;;;;;;9.77;1.98;;;20.90;64.40;;;;;;4908493;29;20044;-65
2022/06/28 11:04:11;;;;;;;7.53;1.92;;;21.00;65.10;;;;;;4907890;29;20036;-65
2022/06/28 11:06:40;;;;;;;4.82;1.70;;;21.10;65.60;;;;;;4903141;29;20088;-65
2022/06/28 11:09:16;;;;;;;6.72;1.90;;;21.20;65.10;;;;;;5000462;28;20498;-63
2022/06/28 11:12:08;;;;;;;6.80;1.80;;;21.30;64.80;;;;;;5009195;28;20103;-63
2022/06/28 11:14:45;;;;;;;10.90;2.00;;;21.30;64.40;;;;;;5007138;28;20028;-64
2022/06/28 11:17:24;;;;;;;6.97;1.80;;;21.30;64.90;;;;;;5029497;28;20786;-64
2022/06/28 11:19:52;;;;;;;8.48;1.88;;;21.30;64.80;;;;;;5009060;28;20022;-62
2022/06/28 11:22:28;;;;;;;5.93;1.85;;;21.30;65.20;;;;;;5006253;28;20030;-64
2022/06/28 11:24:55;;;;;;;8.32;1.90;;;21.30;65.20;;;;;;5006936;28;20073;-63
2022/06/28 11:27:24;;;;;;;6.53;1.77;;;21.30;65.30;;;;;;5005235;28;20465;-64
2022/06/28 11:30:08;;;;;;;8.40;2.00;;;21.30;65.20;;;;;;5008462;28;20034;-64
2022/06/28 11:32:35;;;;;;;6.50;1.70;;;21.30;65.20;;;;;;5007659;28;20018;-62
2022/06/28 11:35:01;;;;;;;6.28;1.80;;;21.30;64.90;;;;;;5018510;28;20042;-60
2022/06/28 11:37:28;;;;;;;9.63;2.17;;;21.40;64.80;;;;;;5009366;28;20030;-61
2022/06/28 11:39:55;;;;;;;7.07;1.77;;;21.30;64.80;;;;;;5007429;28;20034;-60
2022/06/28 11:42:21;;;;;;;7.18;2.00;;;21.40;65.00;;;;;;5009103;28;20506;-62
2022/06/28 11:44:47;;;;;;;5.40;1.60;;;21.40;64.70;;;;;;5009801;28;20061;-62
2022/06/28 11:47:13;;;;;;;8.50;1.90;;;21.30;64.90;;;;;;5022346;28;20496;-62
2022/06/28 11:49:39;;;;;;;7.85;1.52;;;21.30;64.90;;;;;;5005984;28;20478;-62
2022/06/28 11:52:04;;;;;;;4.63;1.50;;;21.30;64.90;;;;;;5008589;28;20036;-62
2022/06/28 11:54:30;;;;;;;6.97;1.70;;;21.30;64.80;;;;;;5007441;28;20113;-62
2022/06/28 11:56:56;;;;;;;6.07;1.70;;;21.30;64.90;;;;;;5009091;28;20040;-61
2022/06/28 11:59:58;;;;;;;6.95;1.65;;;21.40;64.80;;;;;;5007882;28;20057;-62
2022/06/28 12:02:39;;;;;;;8.27;1.70;;;21.40;64.70;;;;;;5020516;28;20021;-62
2022/06/28 12:05:05;;;;;;;7.85;1.60;;;21.40;64.40;;;;;;5007989;28;20107;-62
2022/06/28 12:07:39;;;;;;;5.70;1.65;;;21.50;64.30;;;;;;5009731;28;20065;-63
2022/06/28 12:10:09;;;;;;;6.20;1.50;;;21.40;64.20;;;;;;5008590;28;20093;-62
2022/06/28 12:12:41;;;;;;;5.43;1.77;;;21.50;64.40;;;;;;5015901;28;20034;-62
2022/06/28 12:15:07;;;;;;;6.38;1.60;;;21.50;64.10;;;;;;5007026;28;20446;-63
2022/06/28 12:17:45;;;;;;;6.68;1.75;;;21.60;63.90;;;;;;5009137;28;20026;-62
2022/06/28 12:20:11;;;;;;;7.03;1.50;;;21.60;63.80;;;;;;5016776;28;20018;-63
2022/06/28 12:22:37;;;;;;;6.93;1.60;;;21.60;63.60;;;;;;5008526;28;20037;-62
2022/06/28 12:25:08;;;;;;;5.72;1.40;;;21.60;63.60;;;;;;5014524;28;20018;-63
2022/06/28 12:27:36;;;;;;;5.47;1.50;;;21.60;63.80;;;;;;5007693;28;20445;-62
2022/06/28 12:30:02;;;;;;;6.15;1.73;;;21.60;63.50;;;;;;5008579;28;20029;-63
2022/06/28 12:32:28;;;;;;;4.60;1.35;;;21.60;63.50;;;;;;5008298;28;20084;-63
2022/06/28 12:34:58;;;;;;;5.40;1.20;;;21.70;63.50;;;;;;5006187;28;20075;-63
2022/06/28 12:37:25;;;;;;;6.28;1.65;;;21.70;63.40;;;;;;5006779;28;20034;-63
2022/06/28 12:39:51;;;;;;;8.32;1.60;;;21.70;63.30;;;;;;5008418;28;20026;-63
2022/06/28 12:42:17;;;;;;;6.03;1.48;;;21.80;63.30;;;;;;5005062;28;20441;-63
2022/06/28 12:44:42;;;;;;;9.82;1.80;;;21.80;63.10;;;;;;5008452;28;20026;-62
2022/06/28 12:47:08;;;;;;;7.55;1.80;;;21.80;62.80;;;;;;5007586;28;20030;-63
2022/06/28 12:49:33;;;;;;;5.55;1.50;;;21.90;62.70;;;;;;5005966;28;20038;-63
2022/06/28 12:51:59;;;;;;;7.18;1.58;;;21.90;62.70;;;;;;5006519;28;20045;-62
2022/06/28 12:54:25;;;;;;;5.25;1.52;;;21.90;63.20;;;;;;5007640;28;20030;-63
2022/06/28 12:56:50;;;;;;;8.68;1.70;;;21.90;63.20;;;;;;5007722;28;20525;-62
2022/06/28 12:59:16;;;;;;;6.47;1.75;;;21.90;64.00;;;;;;5007493;28;20049;-62
2022/06/28 13:01:42;;;;;;;8.60;1.88;;;21.90;63.70;;;;;;5004882;28;20431;-62
2022/06/28 13:04:08;;;;;;;8.65;1.63;;;21.80;63.60;;;;;;5004164;28;20033;-62
2022/06/28 13:06:35;;;;;;;8.15;1.70;;;21.80;63.50;;;;;;5004960;28;20053;-63